Terminal Aerodrome Forecast
Issued by NWS

Home | Current Version | Previous Version | Text Only | Print | Product List | Glossary On
Versions: 1 2 3 4 5 6 7 8 9 10 11 12 13 14 15 16 17 18 19 20 21 22 23 24 25 26 27 28 29 30 31 32 33 34 35 36 37 38 39 40 41 42 43 44 45 46
000
FTUS42 KRAH 031738
TAFRWI
TAF
KRWI 031738Z 0318/0418 20008KT P6SM VCSH SCT030 BKN060
      TEMPO 0319/0321 2SM SHRA BR SCT012 BKN022
     FM032100 20008KT P6SM VCSH BKN030 OVC150
      TEMPO 0322/0402 VRB15G30KT 2SM TSRA BKN015CB OVC030
     FM040500 22005KT P6SM FEW025 SCT150
     FM041400 25010G17KT P6SM SCT050 BKN120=

USA.gov is the U.S. government's official web portal to all federal, state and local government web resources and services.